createdAt,value
2022-12-24T00:00:03.846Z,97070.72
2022-12-24T00:02:30.407Z,97065.66
2022-12-24T00:05:00.924Z,97068.28
2022-12-24T00:07:28.397Z,97067.59
2022-12-24T00:09:54.809Z,97062.91
2022-12-24T00:12:22.178Z,97068.75
2022-12-24T00:14:48.599Z,97078.50
2022-12-24T00:17:15.293Z,97068.81
2022-12-24T00:19:43.248Z,97077.53
2022-12-24T00:22:09.988Z,97076.84
2022-12-24T00:24:36.431Z,97084.09
2022-12-24T00:27:03.592Z,97081.22
2022-12-24T00:29:30.020Z,97077.63
2022-12-24T00:31:56.394Z,97092.19
2022-12-24T00:34:24.262Z,97088.56
2022-12-24T00:36:50.935Z,97097.28
2022-12-24T00:39:17.464Z,97095.16
2022-12-24T00:41:43.874Z,97091.88
2022-12-24T00:44:11.142Z,97096.28
2022-12-24T00:46:40.693Z,97091.56
2022-12-24T00:49:08.338Z,97099.84
2022-12-24T00:51:35.973Z,97108.13
2022-12-24T00:54:02.664Z,97112.47
2022-12-24T00:56:29.103Z,97109.94
2022-12-24T00:58:55.607Z,97112.81
2022-12-24T01:01:23.101Z,97129.09
2022-12-24T01:03:51.196Z,97127.28
2022-12-24T01:06:21.820Z,97130.56
2022-12-24T01:08:51.941Z,97144.69
2022-12-24T01:11:18.783Z,97143.53
2022-12-24T01:13:45.232Z,97148.97
2022-12-24T01:16:20.697Z,97149.34
2022-12-24T01:18:47.350Z,97147.16
2022-12-24T01:21:14.785Z,97150.09
2022-12-24T01:23:41.337Z,97155.50
2022-12-24T01:26:07.782Z,97156.63
2022-12-24T01:28:34.307Z,97162.06
2022-12-24T01:31:00.845Z,97158.13
2022-12-24T01:33:30.376Z,97165.00
2022-12-24T01:35:56.837Z,97172.53
2022-12-24T01:38:23.279Z,97171.53
2022-12-24T01:41:08.438Z,97166.03
2022-12-24T01:43:34.917Z,97171.91
2022-12-24T01:46:04.370Z,97163.28
2022-12-24T01:48:46.992Z,97177.31
2022-12-24T01:51:17.337Z,97178.84
2022-12-24T01:53:46.735Z,97182.88
2022-12-24T01:56:13.596Z,97182.91
2022-12-24T01:58:43.196Z,97192.59
2022-12-24T02:01:09.640Z,97198.03
2022-12-24T02:03:36.343Z,97203.91
2022-12-24T02:06:03.536Z,97207.84
2022-12-24T02:08:40.100Z,97202.09
2022-12-24T02:11:18.683Z,97208.25
2022-12-24T02:13:49.293Z,97210.72
2022-12-24T02:16:53.499Z,97215.41
2022-12-24T02:19:35.176Z,97227.69
2022-12-24T02:22:23.259Z,97218.34
2022-12-24T02:25:04.920Z,97208.88
2022-12-24T02:27:42.023Z,97220.50
2022-12-24T02:30:08.824Z,97221.97
2022-12-24T02:32:50.266Z,97238.28
2022-12-24T02:35:33.003Z,97236.09
2022-12-24T02:38:06.314Z,97236.44
2022-12-24T02:40:45.247Z,97233.19
2022-12-24T02:43:18.310Z,97246.25
2022-12-24T02:45:49.560Z,97235.25
2022-12-24T02:48:21.805Z,97242.91
2022-12-24T02:51:06.761Z,97249.78
2022-12-24T02:53:34.293Z,97249.78
2022-12-24T02:56:08.877Z,97262.25
2022-12-24T02:58:53.357Z,97264.41
2022-12-24T03:01:41.331Z,97257.81
2022-12-24T03:04:19.906Z,97270.16
2022-12-24T03:07:10.495Z,97261.81
2022-12-24T03:09:51.355Z,97272.63
2022-12-24T03:12:24.717Z,97275.88
2022-12-24T03:14:51.447Z,97277.06
2022-12-24T03:17:18.285Z,97280.97
2022-12-24T03:19:45.561Z,97283.81
2022-12-24T03:22:13.441Z,97291.91
2022-12-24T03:24:39.956Z,97287.19
2022-12-24T03:27:08.919Z,97294.78
2022-12-24T03:29:35.678Z,97290.34
2022-12-24T03:32:04.779Z,97290.44
2022-12-24T03:34:31.246Z,97287.47
2022-12-24T03:36:57.922Z,97294.31
2022-12-24T03:39:24.341Z,97298.34
2022-12-24T03:41:50.791Z,97305.97
2022-12-24T03:44:17.229Z,97316.41
2022-12-24T03:46:43.691Z,97313.09
2022-12-24T03:49:10.113Z,97314.91
2022-12-24T03:51:36.500Z,97322.47
2022-12-24T03:54:02.940Z,97328.19
2022-12-24T03:56:29.365Z,97321.66
2022-12-24T03:58:55.816Z,97319.19
2022-12-24T04:01:22.410Z,97339.34
2022-12-24T04:03:48.896Z,97327.38
2022-12-24T04:06:18.048Z,97333.19
2022-12-24T04:08:44.641Z,97332.78
2022-12-24T04:11:15.270Z,97334.19
2022-12-24T04:13:41.876Z,97334.25
2022-12-24T04:16:10.754Z,97340.81
2022-12-24T04:18:37.764Z,97342.88
2022-12-24T04:21:05.022Z,97354.53
2022-12-24T04:23:33.166Z,97349.06
2022-12-24T04:26:00.937Z,97357.06
2022-12-24T04:28:29.757Z,97346.69
2022-12-24T04:31:00.843Z,97357.47
2022-12-24T04:33:27.508Z,97347.06
2022-12-24T04:35:54.105Z,97353.88
2022-12-24T04:38:20.744Z,97366.69
2022-12-24T04:40:47.213Z,97357.28
2022-12-24T04:43:13.960Z,97367.03
2022-12-24T04:45:40.415Z,97373.97
2022-12-24T04:48:06.860Z,97375.41
2022-12-24T04:50:33.291Z,97373.59
2022-12-24T04:52:59.738Z,97381.00
2022-12-24T04:55:26.159Z,97368.91
2022-12-24T04:57:53.459Z,97373.72
2022-12-24T05:00:20.285Z,97371.13
2022-12-24T05:02:46.777Z,97376.97
2022-12-24T05:05:13.214Z,97395.19
2022-12-24T05:07:40.684Z,97395.91
2022-12-24T05:10:09.260Z,97403.59
2022-12-24T05:12:35.658Z,97404.66
2022-12-24T05:15:02.324Z,97406.38
2022-12-24T05:17:28.718Z,97396.97
2022-12-24T05:19:55.095Z,97407.84
2022-12-24T05:22:39.970Z,97409.72
2022-12-24T05:25:25.334Z,97415.06
2022-12-24T05:27:53.020Z,97415.19
2022-12-24T05:30:19.472Z,97411.53
2022-12-24T05:32:45.887Z,97427.16
2022-12-24T05:35:12.333Z,97423.88
2022-12-24T05:37:38.872Z,97430.41
2022-12-24T05:40:05.945Z,97428.56
2022-12-24T05:42:32.424Z,97427.03
2022-12-24T05:44:58.847Z,97440.13
2022-12-24T05:47:25.349Z,97443.00
2022-12-24T05:49:51.780Z,97450.56
2022-12-24T05:52:18.219Z,97456.56
2022-12-24T05:54:44.762Z,97466.94
2022-12-24T05:57:11.165Z,97466.91
2022-12-24T05:59:37.542Z,97469.75
2022-12-24T06:02:03.953Z,97469.44
2022-12-24T06:04:30.676Z,97476.81
2022-12-24T06:06:57.137Z,97483.25
2022-12-24T06:09:23.574Z,97486.78
2022-12-24T06:11:49.993Z,97486.13
2022-12-24T06:14:16.415Z,97493.41
2022-12-24T06:16:42.814Z,97493.81
2022-12-24T06:19:09.315Z,97499.25
2022-12-24T06:21:35.677Z,97522.09
2022-12-24T06:24:02.126Z,97509.13
2022-12-24T06:26:28.522Z,97534.13
2022-12-24T06:28:54.963Z,97521.84
2022-12-24T06:31:23.252Z,97523.94
2022-12-24T06:33:50.783Z,97532.59
2022-12-24T06:36:20.297Z,97534.41
2022-12-24T06:38:47.852Z,97540.63
2022-12-24T06:41:14.567Z,97553.22
2022-12-24T06:43:49.644Z,97547.50
2022-12-24T06:46:16.711Z,97554.75
2022-12-24T06:48:44.797Z,97563.81
2022-12-24T06:51:12.360Z,97564.09
2022-12-24T06:53:39.112Z,97569.25
2022-12-24T06:56:07.880Z,97569.16
2022-12-24T06:58:34.826Z,97580.84
2022-12-24T07:01:02.864Z,97579.88
2022-12-24T07:03:30.284Z,97578.38
2022-12-24T07:05:56.728Z,97590.28
2022-12-24T07:08:23.380Z,97598.59
2022-12-24T07:10:54.422Z,97600.06
2022-12-24T07:13:21.537Z,97605.50
2022-12-24T07:15:56.512Z,97612.75
2022-12-24T07:18:22.939Z,97605.88
2022-12-24T07:20:49.361Z,97608.41
2022-12-24T07:23:15.776Z,97616.69
2022-12-24T07:25:42.925Z,97620.31
2022-12-24T07:28:09.544Z,97626.25
2022-12-24T07:30:36.275Z,97622.66
2022-12-24T07:33:02.753Z,97630.00
2022-12-24T07:35:29.152Z,97629.94
2022-12-24T07:37:55.599Z,97635.00
2022-12-24T07:40:22.122Z,97631.06
2022-12-24T07:42:48.559Z,97643.75
2022-12-24T07:45:15.098Z,97660.31
2022-12-24T07:47:41.540Z,97648.84
2022-12-24T07:50:08.535Z,97665.91
2022-12-24T07:52:34.982Z,97664.78
2022-12-24T07:55:01.366Z,97666.47
2022-12-24T07:57:27.777Z,97673.84
2022-12-24T07:59:54.201Z,97672.84
2022-12-24T08:02:20.801Z,97668.03
2022-12-24T08:04:47.384Z,97678.53
2022-12-24T08:07:13.830Z,97685.78
2022-12-24T08:09:40.253Z,97686.91
2022-12-24T08:12:06.928Z,97684.69
2022-12-24T08:14:33.356Z,97696.31
2022-12-24T08:16:59.820Z,97701.00
2022-12-24T08:19:26.275Z,97703.03
2022-12-24T08:21:52.797Z,97704.88
2022-12-24T08:24:19.228Z,97704.28
2022-12-24T08:26:45.617Z,97697.78
2022-12-24T08:29:12.113Z,97703.69
2022-12-24T08:31:38.703Z,97706.22
2022-12-24T08:34:07.039Z,97713.84
2022-12-24T08:36:34.328Z,97711.06
2022-12-24T08:39:03.608Z,97716.38
2022-12-24T08:41:33.106Z,97731.13
2022-12-24T08:43:59.521Z,97730.78
2022-12-24T08:46:26.114Z,97731.28
2022-12-24T08:48:52.777Z,97737.00
2022-12-24T08:51:19.290Z,97746.50
2022-12-24T08:53:45.983Z,97742.47
2022-12-24T08:56:12.648Z,97752.22
2022-12-24T08:58:39.188Z,97749.34
2022-12-24T09:01:13.815Z,97759.41
2022-12-24T09:03:40.670Z,97756.88
2022-12-24T09:06:08.156Z,97758.44
2022-12-24T09:08:35.189Z,97764.25
2022-12-24T09:11:10.776Z,97756.63
2022-12-24T09:13:37.734Z,97770.06
2022-12-24T09:16:04.745Z,97768.50
2022-12-24T09:18:31.261Z,97781.31
2022-12-24T09:21:07.720Z,97784.19
2022-12-24T09:23:40.588Z,97799.47
2022-12-24T09:26:08.834Z,97799.38
2022-12-24T09:28:35.760Z,97805.03
2022-12-24T09:31:04.359Z,97790.50
2022-12-24T09:33:33.970Z,97816.63
2022-12-24T09:36:01.076Z,97810.81
2022-12-24T09:38:27.858Z,97814.50
2022-12-24T09:40:55.687Z,97810.25
2022-12-24T09:43:45.099Z,97819.56
2022-12-24T09:46:32.164Z,97817.16
2022-12-24T09:49:02.287Z,97841.47
2022-12-24T09:51:36.566Z,97833.47
2022-12-24T09:54:26.196Z,97844.81
2022-12-24T09:56:54.922Z,97835.66
2022-12-24T09:59:24.261Z,97847.97
2022-12-24T10:01:52.620Z,97833.53
2022-12-24T10:04:21.286Z,97835.28
2022-12-24T10:07:03.793Z,97842.72
2022-12-24T10:09:55.812Z,97845.69
2022-12-24T10:12:49.320Z,97849.28
2022-12-24T10:15:18.922Z,97855.72
2022-12-24T10:18:34.909Z,97853.06
2022-12-24T10:21:12.777Z,97846.09
2022-12-24T10:23:51.319Z,97845.88
2022-12-24T10:26:27.686Z,97852.53
2022-12-24T10:29:01.780Z,97851.31
2022-12-24T10:31:36.180Z,97865.63
2022-12-24T10:34:12.209Z,97856.34
2022-12-24T10:36:38.766Z,97859.47
2022-12-24T10:39:13.299Z,97863.59
2022-12-24T10:41:40.036Z,97866.47
2022-12-24T10:44:06.535Z,97883.94
2022-12-24T10:46:36.223Z,97876.38
2022-12-24T10:49:06.107Z,97872.88
2022-12-24T10:51:54.131Z,97870.84
2022-12-24T10:54:27.358Z,97881.19
2022-12-24T10:57:02.382Z,97871.56
2022-12-24T10:59:31.599Z,97875.59
2022-12-24T11:01:59.413Z,97877.91
2022-12-24T11:04:29.095Z,97877.22
2022-12-24T11:06:59.075Z,97882.13
2022-12-24T11:09:31.327Z,97892.22
2022-12-24T11:12:02.572Z,97886.78
2022-12-24T11:14:37.490Z,97897.03
2022-12-24T11:17:05.035Z,97908.97
2022-12-24T11:19:32.747Z,97901.47
2022-12-24T11:22:05.545Z,97908.63
2022-12-24T11:24:37.843Z,97911.69
2022-12-24T11:27:34.586Z,97918.75
2022-12-24T11:30:13.371Z,97922.41
2022-12-24T11:32:39.875Z,97921.00
2022-12-24T11:35:27.608Z,97927.13
2022-12-24T11:38:00.058Z,97919.56
2022-12-24T11:40:34.486Z,97940.84
2022-12-24T11:43:02.943Z,97944.41
2022-12-24T11:45:31.422Z,97943.50
2022-12-24T11:47:59.065Z,97950.81
2022-12-24T11:50:37.571Z,97953.16
2022-12-24T11:53:08.030Z,97959.63
2022-12-24T11:55:53.619Z,97963.47
2022-12-24T11:58:24.591Z,97961.28
2022-12-24T12:00:52.501Z,97967.53
2022-12-24T12:03:31.663Z,97973.41
2022-12-24T12:06:01.720Z,97974.22
2022-12-24T12:08:30.292Z,97979.22
2022-12-24T12:10:58.875Z,97982.75
2022-12-24T12:13:33.566Z,97975.38
2022-12-24T12:16:11.001Z,97987.47
2022-12-24T12:18:39.073Z,97994.03
2022-12-24T12:21:20.638Z,97991.72
2022-12-24T12:23:54.689Z,97984.88
2022-12-24T12:26:26.987Z,97983.75
2022-12-24T12:29:00.921Z,97979.31
2022-12-24T12:31:38.691Z,97975.50
2022-12-24T12:34:13.042Z,97979.06
2022-12-24T12:37:08.423Z,97982.38
2022-12-24T12:39:39.171Z,97984.81
2022-12-24T12:42:29.460Z,97986.94
2022-12-24T12:45:25.816Z,97984.03
2022-12-24T12:48:05.318Z,97994.41
2022-12-24T12:50:52.819Z,97998.91
2022-12-24T12:53:22.279Z,97992.72
2022-12-24T12:56:00.893Z,97998.06
2022-12-24T12:58:52.665Z,97998.03
2022-12-24T13:01:37.997Z,98002.56
2022-12-24T13:04:19.643Z,98004.97
2022-12-24T13:07:02.163Z,98009.59
2022-12-24T13:09:46.704Z,98005.38
2022-12-24T13:12:56.352Z,98013.53
2022-12-24T13:15:56.604Z,98022.13
2022-12-24T13:18:42.968Z,98021.25
2022-12-24T13:21:17.316Z,98023.75
2022-12-24T13:23:44.264Z,98025.88
2022-12-24T13:26:13.417Z,98033.63
2022-12-24T13:28:39.969Z,98028.34
2022-12-24T13:31:24.823Z,98028.59
2022-12-24T13:33:55.280Z,98034.59
2022-12-24T13:36:22.208Z,98036.34
2022-12-24T13:38:58.123Z,98035.09
2022-12-24T13:41:40.685Z,98039.41
2022-12-24T13:44:09.323Z,98034.34
2022-12-24T13:46:56.672Z,98044.53
2022-12-24T13:49:41.461Z,98043.47
2022-12-24T13:52:14.529Z,98038.16
2022-12-24T13:55:01.329Z,98039.13
2022-12-24T13:57:59.787Z,98047.75
2022-12-24T14:01:11.747Z,98043.31
2022-12-24T14:03:49.164Z,98054.84
2022-12-24T14:06:30.886Z,98047.66
2022-12-24T14:09:10.533Z,98044.81
2022-12-24T14:11:58.539Z,98051.25
2022-12-24T14:14:36.683Z,98051.34
2022-12-24T14:17:20.846Z,98060.78
2022-12-24T14:19:59.561Z,98057.91
2022-12-24T14:22:36.659Z,98064.06
2022-12-24T14:25:04.993Z,98071.91
2022-12-24T14:27:43.157Z,98074.66
2022-12-24T14:30:26.823Z,98081.88
2022-12-24T14:32:54.416Z,98077.63
2022-12-24T14:35:20.798Z,98072.06
2022-12-24T14:37:49.322Z,98075.72
2022-12-24T14:40:22.738Z,98080.16
2022-12-24T14:43:06.141Z,98091.69
2022-12-24T14:46:04.448Z,98093.19
2022-12-24T14:48:54.569Z,98096.78
2022-12-24T14:51:29.720Z,98097.81
2022-12-24T14:54:21.125Z,98100.59
2022-12-24T14:56:47.585Z,98105.38
2022-12-24T14:59:16.684Z,98102.81
2022-12-24T15:01:43.424Z,98108.66
2022-12-24T15:04:09.995Z,98106.84
2022-12-24T15:06:39.487Z,98112.53
2022-12-24T15:09:14.577Z,98114.31
2022-12-24T15:11:44.816Z,98120.41
2022-12-24T15:14:13.385Z,98121.94
2022-12-24T15:16:40.615Z,98128.34
2022-12-24T15:19:18.107Z,98123.47
2022-12-24T15:21:44.754Z,98120.84
2022-12-24T15:24:32.636Z,98127.34
2022-12-24T15:27:02.837Z,98125.84
2022-12-24T15:29:32.485Z,98136.81
2022-12-24T15:32:05.058Z,98140.44
2022-12-24T15:34:41.788Z,98166.06
2022-12-24T15:37:20.764Z,98167.88
2022-12-24T15:39:55.634Z,98153.28
2022-12-24T15:42:24.028Z,98155.16
2022-12-24T15:45:05.475Z,98161.31
2022-12-24T15:47:38.984Z,98161.31
2022-12-24T15:50:16.477Z,98161.53
2022-12-24T15:52:43.644Z,98172.94
2022-12-24T15:55:28.474Z,98177.09
2022-12-24T15:57:55.316Z,98171.28
2022-12-24T16:00:33.492Z,98181.75
2022-12-24T16:03:20.631Z,98214.72
2022-12-24T16:05:47.053Z,98222.97
2022-12-24T16:08:13.525Z,98228.25
2022-12-24T16:10:43.705Z,98222.25
2022-12-24T16:13:13.637Z,98226.78
2022-12-24T16:15:47.106Z,98235.31
2022-12-24T16:18:19.932Z,98240.28
2022-12-24T16:20:48.774Z,98243.31
2022-12-24T16:23:24.493Z,98238.06
2022-12-24T16:25:52.858Z,98234.44
2022-12-24T16:28:23.017Z,98241.94
2022-12-24T16:30:49.874Z,98239.63
2022-12-24T16:33:19.239Z,98247.72
2022-12-24T16:35:46.915Z,98241.47
2022-12-24T16:38:13.747Z,98242.88
2022-12-24T16:40:41.216Z,98239.28
2022-12-24T16:43:27.467Z,98246.84
2022-12-24T16:45:54.578Z,98250.78
2022-12-24T16:48:23.874Z,98245.28
2022-12-24T16:50:51.993Z,98241.25
2022-12-24T16:53:20.214Z,98247.69
2022-12-24T16:55:47.826Z,98256.44
2022-12-24T16:58:15.760Z,98262.25
2022-12-24T17:00:43.080Z,98269.84
2022-12-24T17:03:09.540Z,98280.25
2022-12-24T17:05:43.445Z,98281.63
2022-12-24T17:08:10.228Z,98281.94
2022-12-24T17:10:37.071Z,98287.00
2022-12-24T17:13:03.546Z,98281.50
2022-12-24T17:15:30.096Z,98277.91
2022-12-24T17:17:56.669Z,98289.84
2022-12-24T17:20:24.458Z,98302.94
2022-12-24T17:22:51.407Z,98312.75
2022-12-24T17:25:17.878Z,98313.34
2022-12-24T17:27:44.351Z,98317.81
2022-12-24T17:30:11.193Z,98318.09
2022-12-24T17:32:37.700Z,98318.84
2022-12-24T17:35:04.482Z,98318.19
2022-12-24T17:37:30.943Z,98304.94
2022-12-24T17:39:57.446Z,98298.50
2022-12-24T17:42:23.969Z,98299.28
2022-12-24T17:44:50.424Z,98299.84
2022-12-24T17:47:17.066Z,98305.56
2022-12-24T17:49:43.539Z,98309.81
2022-12-24T17:52:10.055Z,98306.31
2022-12-24T17:54:36.568Z,98311.34
2022-12-24T17:57:03.005Z,98317.91
2022-12-24T17:59:29.450Z,98304.22
2022-12-24T18:01:55.971Z,98300.44
2022-12-24T18:04:22.691Z,98300.47
2022-12-24T18:06:49.931Z,98318.91
2022-12-24T18:09:17.235Z,98322.47
2022-12-24T18:11:43.670Z,98323.97
2022-12-24T18:14:11.095Z,98331.56
2022-12-24T18:16:39.658Z,98340.91
2022-12-24T18:19:10.296Z,98344.78
2022-12-24T18:21:36.815Z,98351.03
2022-12-24T18:24:03.519Z,98354.13
2022-12-24T18:26:31.041Z,98347.88
2022-12-24T18:28:58.205Z,98353.13
2022-12-24T18:31:26.734Z,98345.22
2022-12-24T18:33:54.896Z,98356.84
2022-12-24T18:36:22.142Z,98363.69
2022-12-24T18:38:48.679Z,98364.28
2022-12-24T18:41:24.264Z,98365.00
2022-12-24T18:43:51.126Z,98355.22
2022-12-24T18:46:21.043Z,98355.22
2022-12-24T18:48:47.858Z,98354.50
2022-12-24T18:51:14.875Z,98358.47
2022-12-24T18:53:41.396Z,98363.97
2022-12-24T18:56:12.616Z,98370.53
2022-12-24T18:58:41.175Z,98375.88
2022-12-24T19:01:20.063Z,98362.94
2022-12-24T19:03:47.808Z,98363.97
2022-12-24T19:06:14.206Z,98368.16
2022-12-24T19:08:58.380Z,98367.53
2022-12-24T19:11:26.737Z,98368.59
2022-12-24T19:13:53.508Z,98363.53
2022-12-24T19:16:20.894Z,98367.13
2022-12-24T19:18:47.618Z,98360.59
2022-12-24T19:21:15.747Z,98368.47
2022-12-24T19:23:42.799Z,98372.34
2022-12-24T19:26:14.034Z,98379.19
2022-12-24T19:28:40.556Z,98377.72
2022-12-24T19:31:13.032Z,98386.47
2022-12-24T19:33:43.128Z,98385.00
2022-12-24T19:36:12.992Z,98391.53
2022-12-24T19:38:39.683Z,98393.31
2022-12-24T19:41:17.286Z,98397.63
2022-12-24T19:43:45.987Z,98397.63
2022-12-24T19:46:14.605Z,98407.47
2022-12-24T19:48:42.109Z,98407.47
2022-12-24T19:51:11.236Z,98417.25
2022-12-24T19:53:38.438Z,98416.94
2022-12-24T19:56:05.951Z,98416.19
2022-12-24T19:58:35.447Z,98421.56
2022-12-24T20:01:11.172Z,98428.84
2022-12-24T20:03:42.020Z,98428.41
2022-12-24T20:06:08.848Z,98435.25
2022-12-24T20:08:37.060Z,98429.13
2022-12-24T20:11:06.576Z,98437.03
2022-12-24T20:13:33.943Z,98436.31
2022-12-24T20:16:08.819Z,98429.00
2022-12-24T20:18:35.482Z,98434.06
2022-12-24T20:21:03.411Z,98440.63
2022-12-24T20:23:30.553Z,98447.28
2022-12-24T20:26:01.879Z,98450.88
2022-12-24T20:28:30.393Z,98447.16
2022-12-24T20:30:56.806Z,98439.91
2022-12-24T20:33:24.010Z,98445.38
2022-12-24T20:35:50.533Z,98440.34
2022-12-24T20:38:17.289Z,98445.81
2022-12-24T20:40:45.235Z,98450.88
2022-12-24T20:43:12.179Z,98448.63
2022-12-24T20:45:38.620Z,98454.00
2022-12-24T20:48:06.282Z,98458.03
2022-12-24T20:50:32.786Z,98454.19
2022-12-24T20:52:59.455Z,98455.97
2022-12-24T20:55:25.903Z,98454.78
2022-12-24T20:57:52.384Z,98460.88
2022-12-24T21:00:19.961Z,98462.38
2022-12-24T21:02:46.650Z,98459.13
2022-12-24T21:05:13.309Z,98460.75
2022-12-24T21:07:40.113Z,98461.06
2022-12-24T21:10:07.838Z,98459.00
2022-12-24T21:12:49.968Z,98451.72
2022-12-24T21:15:19.143Z,98462.13
2022-12-24T21:17:46.691Z,98455.75
2022-12-24T21:20:13.356Z,98454.88
2022-12-24T21:22:40.094Z,98461.09
2022-12-24T21:25:07.511Z,98457.81
2022-12-24T21:27:34.231Z,98458.25
2022-12-24T21:30:00.700Z,98462.09
2022-12-24T21:32:27.243Z,98465.06
2022-12-24T21:34:53.791Z,98463.16
2022-12-24T21:37:20.434Z,98469.94
2022-12-24T21:39:48.035Z,98471.72
2022-12-24T21:42:14.582Z,98474.34
2022-12-24T21:44:41.117Z,98474.19
2022-12-24T21:47:07.988Z,98476.09
2022-12-24T21:49:53.207Z,98473.13
2022-12-24T21:52:19.715Z,98477.56
2022-12-24T21:54:46.244Z,98480.34
2022-12-24T21:57:31.654Z,98493.88
2022-12-24T22:00:18.944Z,98490.72
2022-12-24T22:02:45.796Z,98495.88
2022-12-24T22:05:12.425Z,98484.00
2022-12-24T22:07:57.694Z,98485.00
2022-12-24T22:10:42.658Z,98501.00
2022-12-24T22:13:09.660Z,98504.22
2022-12-24T22:15:42.182Z,98506.00
2022-12-24T22:18:08.795Z,98502.69
2022-12-24T22:20:36.803Z,98506.97
2022-12-24T22:23:03.754Z,98504.13
2022-12-24T22:25:30.831Z,98507.34
2022-12-24T22:27:57.698Z,98510.41
2022-12-24T22:30:24.208Z,98508.44
2022-12-24T22:32:50.799Z,98517.88
2022-12-24T22:35:17.343Z,98526.00
2022-12-24T22:37:44.128Z,98528.75
2022-12-24T22:40:11.538Z,98525.59
2022-12-24T22:42:38.059Z,98526.63
2022-12-24T22:45:05.510Z,98527.75
2022-12-24T22:47:32.265Z,98533.34
2022-12-24T22:49:58.727Z,98527.28
2022-12-24T22:52:25.136Z,98532.63
2022-12-24T22:54:51.701Z,98540.44
2022-12-24T22:57:18.204Z,98544.38
2022-12-24T22:59:44.813Z,98551.91
2022-12-24T23:02:12.095Z,98534.78
2022-12-24T23:04:40.255Z,98548.38
2022-12-24T23:07:08.962Z,98556.88
2022-12-24T23:09:35.557Z,98571.44
2022-12-24T23:12:02.251Z,98573.28
2022-12-24T23:15:07.358Z,98568.97
2022-12-24T23:17:33.783Z,98569.53
2022-12-24T23:20:02.091Z,98567.59
2022-12-24T23:22:28.506Z,98561.31
2022-12-24T23:24:54.981Z,98566.09
2022-12-24T23:27:21.369Z,98569.16
2022-12-24T23:29:47.828Z,98574.19
2022-12-24T23:32:14.295Z,98571.94
2022-12-24T23:34:40.838Z,98569.91
2022-12-24T23:37:07.695Z,98572.69
2022-12-24T23:39:34.125Z,98572.22
2022-12-24T23:42:00.569Z,98565.06
2022-12-24T23:44:32.182Z,98572.91
2022-12-24T23:46:59.576Z,98561.50
2022-12-24T23:49:26.707Z,98576.59
2022-12-24T23:51:53.179Z,98587.69
2022-12-24T23:54:19.714Z,98594.56
2022-12-24T23:56:46.189Z,98588.41
2022-12-24T23:59:12.638Z,98583.84
